createdAt,value
2022-11-29T00:00:52.620Z,79.32
2022-11-29T00:03:50.094Z,79.40
2022-11-29T00:06:47.596Z,79.49
2022-11-29T00:09:45.060Z,79.53
2022-11-29T00:12:42.525Z,79.61
2022-11-29T00:15:40.044Z,79.63
2022-11-29T00:18:37.489Z,79.69
2022-11-29T00:21:34.957Z,79.70
2022-11-29T00:24:33.004Z,79.76
2022-11-29T00:27:30.463Z,79.80
2022-11-29T00:30:28.076Z,79.89
2022-11-29T00:33:25.685Z,79.90
2022-11-29T00:36:23.136Z,79.93
2022-11-29T00:39:20.595Z,79.98
2022-11-29T00:42:18.079Z,80.00
2022-11-29T00:45:15.546Z,80.06
2022-11-29T00:48:13.025Z,80.10
2022-11-29T00:51:10.503Z,80.13
2022-11-29T00:54:07.961Z,80.20
2022-11-29T00:57:05.428Z,80.20
2022-11-29T01:00:02.938Z,80.21
2022-11-29T01:03:00.393Z,80.22
2022-11-29T01:05:57.837Z,80.29
2022-11-29T01:08:55.307Z,80.30
2022-11-29T01:11:52.762Z,80.31
2022-11-29T01:14:50.209Z,80.35
2022-11-29T01:17:49.210Z,80.31
2022-11-29T01:20:46.688Z,80.34
2022-11-29T01:23:44.169Z,80.38
2022-11-29T01:26:41.644Z,80.36
2022-11-29T01:29:39.117Z,80.37
2022-11-29T01:32:36.591Z,80.38
2022-11-29T01:35:34.073Z,80.35
2022-11-29T01:38:31.546Z,80.38
2022-11-29T01:41:29.005Z,80.36
2022-11-29T01:44:26.483Z,80.36
2022-11-29T01:47:23.933Z,80.34
2022-11-29T01:50:21.390Z,80.31
2022-11-29T01:53:18.878Z,80.35
2022-11-29T01:56:16.479Z,80.32
2022-11-29T01:59:14.664Z,80.30
2022-11-29T02:02:12.227Z,80.30
2022-11-29T02:05:09.695Z,80.30
2022-11-29T02:08:07.610Z,80.21
2022-11-29T02:11:05.059Z,80.20
2022-11-29T02:14:02.531Z,80.20
2022-11-29T02:16:59.976Z,80.17
2022-11-29T02:19:57.440Z,80.13
2022-11-29T02:22:54.916Z,80.11
2022-11-29T02:25:52.363Z,80.13
2022-11-29T02:28:49.850Z,80.10
2022-11-29T02:31:47.285Z,80.10
2022-11-29T02:34:45.063Z,80.07
2022-11-29T02:37:42.768Z,80.02
2022-11-29T02:40:40.247Z,80.00
2022-11-29T02:43:37.701Z,80.04
2022-11-29T02:46:35.225Z,80.00
2022-11-29T02:49:32.733Z,80.00
2022-11-29T02:52:30.186Z,79.90
2022-11-29T02:55:27.645Z,79.90
2022-11-29T02:58:25.121Z,79.89
2022-11-29T03:01:22.675Z,79.89
2022-11-29T03:04:20.230Z,79.86
2022-11-29T03:07:17.859Z,79.82
2022-11-29T03:10:15.343Z,79.88
2022-11-29T03:13:12.799Z,79.90
2022-11-29T03:16:10.328Z,79.90
2022-11-29T03:19:07.822Z,79.90
2022-11-29T03:22:05.342Z,79.94
2022-11-29T03:25:02.853Z,79.99
2022-11-29T03:28:00.304Z,79.97
2022-11-29T03:30:57.824Z,79.96
2022-11-29T03:33:55.340Z,80.00
2022-11-29T03:36:52.813Z,79.95
2022-11-29T03:39:50.284Z,79.96
2022-11-29T03:42:47.800Z,79.96
2022-11-29T03:45:45.249Z,79.94
2022-11-29T03:48:42.726Z,79.99
2022-11-29T03:51:40.186Z,80.00
2022-11-29T03:54:37.628Z,79.96
2022-11-29T03:57:35.082Z,79.91
2022-11-29T04:00:32.541Z,79.92
2022-11-29T04:03:29.998Z,79.93
2022-11-29T04:06:27.464Z,79.88
2022-11-29T04:09:25.047Z,79.88
2022-11-29T04:12:22.484Z,79.91
2022-11-29T04:15:19.923Z,79.91
2022-11-29T04:18:17.383Z,79.90
2022-11-29T04:21:14.852Z,79.88
2022-11-29T04:24:12.306Z,79.82
2022-11-29T04:27:09.771Z,79.80
2022-11-29T04:30:07.751Z,79.77
2022-11-29T04:33:05.213Z,79.71
2022-11-29T04:36:02.677Z,79.70
2022-11-29T04:39:00.132Z,79.63
2022-11-29T04:41:57.601Z,79.60
2022-11-29T04:44:55.042Z,79.60
2022-11-29T04:47:52.508Z,79.60
2022-11-29T04:50:49.948Z,79.60
2022-11-29T04:53:47.417Z,79.60
2022-11-29T04:56:44.904Z,79.64
2022-11-29T04:59:42.367Z,79.62
2022-11-29T05:02:39.880Z,79.65
2022-11-29T05:05:37.369Z,79.70
2022-11-29T05:08:34.841Z,79.69
2022-11-29T05:11:32.277Z,79.70
2022-11-29T05:14:29.742Z,79.70
2022-11-29T05:17:27.320Z,79.72
2022-11-29T05:20:24.792Z,79.76
2022-11-29T05:23:22.285Z,79.80
2022-11-29T05:26:19.752Z,79.80
2022-11-29T05:29:17.213Z,79.81
2022-11-29T05:32:14.657Z,79.85
2022-11-29T05:35:12.101Z,79.90
2022-11-29T05:38:09.626Z,79.97
2022-11-29T05:41:07.083Z,80.00
2022-11-29T05:44:04.659Z,80.13
2022-11-29T05:47:02.150Z,80.30
2022-11-29T05:50:00.131Z,80.30
2022-11-29T05:52:57.591Z,80.30
2022-11-29T05:55:55.074Z,80.30
2022-11-29T05:58:52.560Z,80.38
2022-11-29T06:01:50.039Z,80.41
2022-11-29T06:04:47.675Z,80.46
2022-11-29T06:07:45.729Z,80.50
2022-11-29T06:10:43.220Z,80.50
2022-11-29T06:13:40.683Z,80.54
2022-11-29T06:16:39.159Z,80.60
2022-11-29T06:19:37.665Z,80.64
2022-11-29T06:22:35.110Z,80.68
2022-11-29T06:25:32.828Z,80.70
2022-11-29T06:28:30.320Z,80.74
2022-11-29T06:31:27.804Z,80.80
2022-11-29T06:34:30.551Z,80.85
2022-11-29T06:37:28.600Z,80.89
2022-11-29T06:40:26.058Z,80.96
2022-11-29T06:43:23.557Z,81.01
2022-11-29T06:46:21.037Z,81.08
2022-11-29T06:49:18.542Z,81.11
2022-11-29T06:52:15.976Z,81.14
2022-11-29T06:55:13.468Z,81.21
2022-11-29T06:58:10.937Z,81.25
2022-11-29T07:01:08.464Z,81.30
2022-11-29T07:04:05.937Z,81.30
2022-11-29T07:07:03.365Z,81.31
2022-11-29T07:10:00.804Z,81.29
2022-11-29T07:12:58.279Z,81.30
2022-11-29T07:15:55.816Z,81.30
2022-11-29T07:18:53.294Z,81.30
2022-11-29T07:21:50.734Z,81.29
2022-11-29T07:24:48.291Z,81.30
2022-11-29T07:27:45.754Z,81.31
2022-11-29T07:30:43.169Z,81.33
2022-11-29T07:33:42.114Z,81.38
2022-11-29T07:36:39.570Z,81.38
2022-11-29T07:39:37.052Z,81.40
2022-11-29T07:42:34.522Z,81.37
2022-11-29T07:45:32.631Z,81.36
2022-11-29T07:48:30.101Z,81.40
2022-11-29T07:51:27.555Z,81.42
2022-11-29T07:54:25.019Z,81.40
2022-11-29T07:57:22.824Z,81.36
2022-11-29T08:00:20.387Z,81.34
2022-11-29T08:03:17.855Z,81.28
2022-11-29T08:06:15.309Z,81.29
2022-11-29T08:09:12.772Z,81.24
2022-11-29T08:12:10.507Z,81.20
2022-11-29T08:15:07.957Z,81.14
2022-11-29T08:18:05.453Z,81.17
2022-11-29T08:21:02.884Z,81.17
2022-11-29T08:24:00.313Z,81.09
2022-11-29T08:26:57.806Z,81.07
2022-11-29T08:29:55.248Z,81.07
2022-11-29T08:32:52.721Z,81.07
2022-11-29T08:35:50.199Z,80.98
2022-11-29T08:38:47.679Z,80.91
2022-11-29T08:41:45.147Z,80.90
2022-11-29T08:44:42.760Z,80.92
2022-11-29T08:47:42.443Z,80.95
2022-11-29T08:50:39.891Z,80.99
2022-11-29T08:53:43.402Z,81.00
2022-11-29T08:59:58.392Z,80.99
2022-11-29T09:02:55.829Z,80.92
2022-11-29T09:05:53.283Z,80.93
2022-11-29T09:08:50.766Z,80.91
2022-11-29T09:11:49.631Z,80.90
2022-11-29T09:14:47.419Z,80.93
2022-11-29T09:17:44.911Z,80.93
2022-11-29T09:20:42.367Z,80.93
2022-11-29T09:23:39.830Z,80.95
2022-11-29T09:26:38.046Z,80.90
2022-11-29T09:29:35.605Z,80.90
2022-11-29T09:32:34.303Z,80.96
2022-11-29T09:35:31.775Z,80.84
2022-11-29T09:38:29.268Z,80.75
2022-11-29T09:41:26.734Z,80.69
2022-11-29T09:44:25.028Z,80.67
2022-11-29T09:47:22.472Z,80.63
2022-11-29T09:50:20.019Z,80.57
2022-11-29T09:53:17.612Z,80.53
2022-11-29T09:56:15.107Z,80.50
2022-11-29T09:59:12.591Z,80.45
2022-11-29T10:02:10.664Z,80.38
2022-11-29T10:05:08.527Z,80.34
2022-11-29T10:08:05.977Z,80.18
2022-11-29T10:11:03.463Z,80.00
2022-11-29T10:14:00.983Z,79.62
2022-11-29T10:16:58.489Z,79.31
2022-11-29T10:19:55.974Z,79.29
2022-11-29T10:22:54.656Z,79.07
2022-11-29T10:25:52.094Z,78.82
2022-11-29T10:28:49.744Z,78.60
2022-11-29T10:31:49.619Z,78.60
2022-11-29T10:34:47.795Z,78.53
2022-11-29T10:38:01.440Z,78.42
2022-11-29T10:41:03.184Z,78.43
2022-11-29T10:44:00.646Z,78.29
2022-11-29T10:46:58.136Z,78.32
2022-11-29T10:49:56.986Z,78.23
2022-11-29T10:52:59.803Z,78.27
2022-11-29T10:55:57.639Z,78.27
2022-11-29T10:58:55.126Z,78.18
2022-11-29T11:01:52.645Z,78.23
2022-11-29T11:04:50.223Z,78.32
2022-11-29T11:07:47.757Z,78.39
2022-11-29T11:10:52.520Z,78.40
2022-11-29T11:13:51.245Z,78.34
2022-11-29T11:16:48.764Z,78.20
2022-11-29T11:19:46.232Z,78.07
2022-11-29T11:22:44.210Z,78.04
2022-11-29T11:25:41.792Z,77.96
2022-11-29T11:28:39.325Z,77.82
2022-11-29T11:31:38.140Z,77.63
2022-11-29T11:34:35.584Z,77.55
2022-11-29T11:37:33.061Z,77.38
2022-11-29T11:40:30.659Z,77.11
2022-11-29T11:43:28.248Z,77.09
2022-11-29T11:46:25.728Z,77.02
2022-11-29T11:49:23.233Z,76.57
2022-11-29T11:52:22.226Z,76.40
2022-11-29T11:55:19.698Z,76.41
2022-11-29T11:58:17.172Z,76.31
2022-11-29T12:01:14.649Z,76.31
2022-11-29T12:04:12.140Z,76.33
2022-11-29T12:07:09.599Z,76.19
2022-11-29T12:10:07.068Z,76.18
2022-11-29T12:13:04.553Z,76.13
2022-11-29T12:16:02.237Z,76.03
2022-11-29T12:18:59.778Z,75.83
2022-11-29T12:21:57.233Z,75.43
2022-11-29T12:24:54.709Z,74.78
2022-11-29T12:27:52.173Z,74.72
2022-11-29T12:30:49.719Z,74.55
2022-11-29T12:33:47.205Z,74.05
2022-11-29T12:36:44.677Z,73.63
2022-11-29T12:39:42.494Z,73.40
2022-11-29T12:42:40.035Z,72.89
2022-11-29T12:45:37.621Z,72.82
2022-11-29T12:48:35.089Z,72.87
2022-11-29T12:51:32.542Z,72.85
2022-11-29T12:54:29.969Z,72.81
2022-11-29T12:57:27.433Z,72.80
2022-11-29T13:00:24.902Z,72.62
2022-11-29T13:03:22.399Z,72.22
2022-11-29T13:06:19.907Z,72.11
2022-11-29T13:09:17.359Z,71.77
2022-11-29T13:12:14.835Z,71.51
2022-11-29T13:15:12.276Z,71.23
2022-11-29T13:18:09.876Z,71.27
2022-11-29T13:21:07.341Z,71.15
2022-11-29T13:24:09.232Z,71.06
2022-11-29T13:27:07.123Z,70.93
2022-11-29T13:30:04.636Z,70.83
2022-11-29T13:33:02.083Z,70.70
2022-11-29T13:35:59.557Z,70.65
2022-11-29T13:38:56.992Z,70.41
2022-11-29T13:41:54.463Z,70.28
2022-11-29T13:44:51.916Z,70.18
2022-11-29T13:47:49.515Z,70.28
2022-11-29T13:50:46.988Z,70.26
2022-11-29T13:53:48.768Z,70.34
2022-11-29T13:56:47.244Z,70.38
2022-11-29T13:59:47.640Z,70.53
2022-11-29T14:02:45.381Z,70.62
2022-11-29T14:05:43.038Z,70.69
2022-11-29T14:09:10.751Z,70.82
2022-11-29T14:11:58.988Z,70.77
2022-11-29T14:14:56.449Z,70.76
2022-11-29T14:17:53.958Z,70.68
2022-11-29T14:20:51.397Z,70.75
2022-11-29T14:23:48.877Z,70.97
2022-11-29T14:26:46.317Z,71.28
2022-11-29T14:29:43.788Z,71.52
2022-11-29T14:32:45.907Z,71.60
2022-11-29T14:35:43.989Z,71.78
2022-11-29T14:38:41.499Z,71.78
2022-11-29T14:41:38.971Z,71.76
2022-11-29T14:44:36.433Z,71.78
2022-11-29T14:47:34.460Z,71.65
2022-11-29T14:50:31.954Z,71.74
2022-11-29T14:53:29.403Z,71.85
2022-11-29T14:56:26.854Z,71.88
2022-11-29T14:59:24.294Z,72.04
2022-11-29T15:02:21.843Z,72.23
2022-11-29T15:05:19.895Z,72.35
2022-11-29T15:08:17.487Z,72.51
2022-11-29T15:11:14.945Z,72.63
2022-11-29T15:14:12.536Z,72.76
2022-11-29T15:17:10.011Z,72.92
2022-11-29T15:20:07.456Z,73.05
2022-11-29T15:23:04.955Z,73.21
2022-11-29T15:26:02.592Z,73.35
2022-11-29T15:29:00.107Z,73.62
2022-11-29T15:31:57.636Z,74.04
2022-11-29T15:34:55.180Z,74.68
2022-11-29T15:37:52.690Z,75.16
2022-11-29T15:40:52.815Z,75.57
2022-11-29T15:43:50.275Z,75.87
2022-11-29T15:46:47.775Z,76.15
2022-11-29T15:49:45.239Z,76.37
2022-11-29T15:52:43.193Z,76.57
2022-11-29T15:55:40.755Z,76.75
2022-11-29T15:58:38.232Z,76.86
2022-11-29T16:01:35.728Z,77.03
2022-11-29T16:04:33.287Z,77.17
2022-11-29T16:07:32.724Z,77.27
2022-11-29T16:10:34.982Z,77.38
2022-11-29T16:13:33.173Z,77.43
2022-11-29T16:16:32.980Z,77.48
2022-11-29T16:19:30.524Z,77.51
2022-11-29T16:22:27.984Z,77.57
2022-11-29T16:25:25.441Z,77.63
2022-11-29T16:28:22.919Z,77.70
2022-11-29T16:31:20.928Z,77.70
2022-11-29T16:34:19.652Z,77.71
2022-11-29T16:37:17.194Z,77.80
2022-11-29T16:40:15.223Z,77.82
2022-11-29T16:43:12.667Z,77.91
2022-11-29T16:46:10.382Z,78.00
2022-11-29T16:49:09.542Z,78.05
2022-11-29T16:52:08.923Z,78.14
2022-11-29T16:55:06.975Z,78.24
2022-11-29T16:58:06.084Z,78.33
2022-11-29T17:01:05.170Z,78.40
2022-11-29T17:04:02.778Z,78.51
2022-11-29T17:07:01.327Z,78.56
2022-11-29T17:09:59.137Z,78.68
2022-11-29T17:12:57.059Z,78.70
2022-11-29T17:15:55.132Z,78.79
2022-11-29T17:18:54.949Z,78.82
2022-11-29T17:21:53.438Z,78.88
2022-11-29T17:24:51.297Z,78.91
2022-11-29T17:27:51.327Z,78.97
2022-11-29T17:30:49.377Z,79.00
2022-11-29T17:33:47.103Z,79.04
2022-11-29T17:36:45.858Z,79.08
2022-11-29T17:39:47.421Z,79.12
2022-11-29T17:42:46.225Z,79.20
2022-11-29T17:45:44.772Z,79.28
2022-11-29T17:48:45.646Z,79.37
2022-11-29T17:51:53.143Z,79.44
2022-11-29T17:54:51.318Z,79.50
2022-11-29T17:57:50.289Z,79.55
2022-11-29T18:00:48.799Z,79.63
2022-11-29T18:03:46.604Z,79.70
2022-11-29T18:06:44.197Z,79.76
2022-11-29T18:09:42.236Z,79.79
2022-11-29T18:12:41.440Z,79.85
2022-11-29T18:15:38.969Z,79.88
2022-11-29T18:18:37.039Z,79.90
2022-11-29T18:21:34.507Z,79.90
2022-11-29T18:24:32.636Z,79.90
2022-11-29T18:27:31.186Z,79.90
2022-11-29T18:30:32.644Z,79.90
2022-11-29T18:33:31.168Z,79.90
2022-11-29T18:36:29.578Z,79.91
2022-11-29T18:39:28.236Z,79.91
2022-11-29T18:42:27.160Z,79.93
2022-11-29T18:45:25.818Z,79.99
2022-11-29T18:48:24.403Z,80.03
2022-11-29T18:51:22.700Z,80.10
2022-11-29T18:54:21.345Z,80.16
2022-11-29T18:57:21.893Z,80.24
2022-11-29T19:00:23.725Z,80.36
2022-11-29T19:03:22.333Z,80.43
2022-11-29T19:06:21.568Z,80.49
2022-11-29T19:09:21.830Z,80.56
2022-11-29T19:12:22.977Z,80.61
2022-11-29T19:15:21.712Z,80.68
2022-11-29T19:18:20.698Z,80.70
2022-11-29T19:21:18.216Z,80.70
2022-11-29T19:24:18.446Z,80.72
2022-11-29T19:27:17.281Z,80.79
2022-11-29T19:30:16.932Z,80.82
2022-11-29T19:33:15.565Z,80.83
2022-11-29T19:36:19.230Z,80.88
2022-11-29T19:39:17.807Z,80.82
2022-11-29T19:42:19.023Z,80.86
2022-11-29T19:45:18.294Z,80.81
2022-11-29T19:48:16.061Z,80.80
2022-11-29T19:51:13.547Z,80.86
2022-11-29T19:54:12.480Z,80.83
2022-11-29T19:57:11.074Z,80.81
2022-11-29T20:00:09.964Z,80.87
2022-11-29T20:03:08.651Z,80.82
2022-11-29T20:06:08.973Z,80.82
2022-11-29T20:09:08.118Z,80.80
2022-11-29T20:12:06.274Z,80.82
2022-11-29T20:15:05.343Z,80.89
2022-11-29T20:18:05.493Z,80.90
2022-11-29T20:21:04.210Z,80.90
2022-11-29T20:24:06.531Z,80.94
2022-11-29T20:27:10.285Z,80.99
2022-11-29T20:30:12.868Z,81.03
2022-11-29T20:33:11.536Z,81.03
2022-11-29T20:36:10.674Z,81.10
2022-11-29T20:39:09.398Z,81.10
2022-11-29T20:42:07.729Z,81.12
2022-11-29T20:45:06.629Z,81.19
2022-11-29T20:48:07.048Z,81.21
2022-11-29T20:51:06.341Z,81.28
2022-11-29T20:54:05.018Z,81.29
2022-11-29T20:57:04.125Z,81.32
2022-11-29T21:00:02.715Z,81.36
2022-11-29T21:03:00.824Z,81.39
2022-11-29T21:05:58.318Z,81.40
2022-11-29T21:08:55.794Z,81.45
2022-11-29T21:11:54.544Z,81.47
2022-11-29T21:14:52.743Z,81.49
2022-11-29T21:17:50.864Z,81.50
2022-11-29T21:20:48.392Z,81.50
2022-11-29T21:23:45.852Z,81.51
2022-11-29T21:26:43.812Z,81.53
2022-11-29T21:29:41.291Z,81.53
2022-11-29T21:32:39.123Z,81.59
2022-11-29T21:35:37.731Z,81.62
2022-11-29T21:38:35.233Z,81.65
2022-11-29T21:41:32.684Z,81.72
2022-11-29T21:44:30.153Z,81.74
2022-11-29T21:47:27.636Z,81.80
2022-11-29T21:50:25.104Z,81.80
2022-11-29T21:53:22.589Z,81.80
2022-11-29T21:56:20.059Z,81.82
2022-11-29T21:59:17.529Z,81.82
2022-11-29T22:02:15.102Z,81.86
2022-11-29T22:05:12.697Z,81.89
2022-11-29T22:08:10.140Z,81.90
2022-11-29T22:11:07.602Z,81.91
2022-11-29T22:14:18.411Z,81.98
2022-11-29T22:17:16.136Z,81.97
2022-11-29T22:20:13.588Z,81.97
2022-11-29T22:23:11.038Z,81.99
2022-11-29T22:26:08.547Z,82.00
2022-11-29T22:29:05.989Z,82.00
2022-11-29T22:32:03.474Z,82.03
2022-11-29T22:35:00.948Z,82.07
2022-11-29T22:37:58.390Z,82.10
2022-11-29T22:40:55.853Z,82.10
2022-11-29T22:43:53.297Z,82.14
2022-11-29T22:46:50.916Z,82.20
2022-11-29T22:49:49.577Z,82.20
2022-11-29T22:52:47.025Z,82.20
2022-11-29T22:55:44.482Z,82.19
2022-11-29T22:58:41.949Z,82.25
2022-11-29T23:01:39.423Z,82.27
2022-11-29T23:04:36.927Z,82.29
2022-11-29T23:07:34.651Z,82.30
2022-11-29T23:10:32.138Z,82.33
2022-11-29T23:13:29.596Z,82.32
2022-11-29T23:16:27.129Z,82.30
2022-11-29T23:19:24.653Z,82.30
2022-11-29T23:22:22.115Z,82.34
2022-11-29T23:25:19.568Z,82.38
2022-11-29T23:28:17.028Z,82.40
2022-11-29T23:31:14.557Z,82.40
2022-11-29T23:34:12.067Z,82.41
2022-11-29T23:37:09.830Z,82.45
2022-11-29T23:40:07.276Z,82.42
2022-11-29T23:43:04.738Z,82.43
2022-11-29T23:46:02.287Z,82.50
2022-11-29T23:48:59.764Z,82.47
2022-11-29T23:51:57.209Z,82.47
2022-11-29T23:54:54.664Z,82.50
2022-11-29T23:57:52.122Z,82.50
